Schneifelwetter: Wetterstation Hallschlag, 537 m . NN
Wetterdaten: Samstag, 11.12.2010
Datum Zeit Temp. A. Feuchte A. Luftdruck Regen Wind Richtung Richtung Sonnenschein Helligkeit T Regen Taupunkt Windchill
11.12.2010 00:10 0,2 C 99 % 1021 hPa 0,0 l/m 39,6 km/h (6 Bft) W45 260 0 min 0 lux 0,00 min 0,1 C -15,6 C
11.12.2010 00:25 0,2 C 99 % 1021 hPa 0,0 l/m 34,5 km/h (5 Bft) W-SW22.5 255 0 min 0 lux 0,00 min 0,1 C -14,4 C
11.12.2010 00:40 0,2 C 99 % 1021 hPa 0,0 l/m 30,8 km/h (5 Bft) W45 260 0 min 0 lux 0,00 min 0,1 C -13,4 C
11.12.2010 00:55 0,2 C 99 % 1021 hPa 0,0 l/m 31,9 km/h (5 Bft) W45 260 0 min 0 lux 0,00 min 0,1 C -13,7 C
11.12.2010 01:10 0,2 C 99 % 1021 hPa 0,0 l/m 36,5 km/h (5 Bft) W-SW22.5 255 0 min 0 lux 0,00 min 0,1 C -14,9 C
11.12.2010 01:25 0,2 C 99 % 1020 hPa 0,0 l/m 33,7 km/h (5 Bft) W45 260 0 min 0 lux 0,00 min 0,1 C -14,2 C
11.12.2010 01:40 0,3 C 99 % 1020 hPa 0,0 l/m 37,0 km/h (5 Bft) W45 260 0 min 0 lux 0,00 min 0,2 C -14,8 C
11.12.2010 01:55 0,3 C 99 % 1020 hPa 0,0 l/m 34,2 km/h (5 Bft) W22.5 260 0 min 0 lux 0,00 min 0,2 C -14,2 C
11.12.2010 02:10 0,3 C 99 % 1020 hPa 0,0 l/m 35,9 km/h (5 Bft) W45 260 0 min 0 lux 0,00 min 0,2 C -14,6 C
11.12.2010 02:25 0,3 C 99 % 1020 hPa 0,0 l/m 34,0 km/h (5 Bft) W-SW45 255 0 min 0 lux 0,00 min 0,2 C -14,1 C
11.12.2010 02:40 0,3 C 99 % 1020 hPa 0,0 l/m 34,7 km/h (5 Bft) W-SW67.5 255 0 min 0 lux 0,00 min 0,2 C -14,3 C
11.12.2010 02:55 0,3 C 99 % 1020 hPa 0,0 l/m 34,5 km/h (5 Bft) W-SW22.5 250 0 min 0 lux 0,00 min 0,2 C -14,2 C
11.12.2010 03:10 0,3 C 99 % 1020 hPa 0,0 l/m 26,7 km/h (4 Bft) W-SW45 255 0 min 0 lux 0,00 min 0,2 C -11,9 C
11.12.2010 03:25 0,4 C 99 % 1020 hPa 0,0 l/m 33,6 km/h (5 Bft) W-SW45 255 0 min 0 lux 0,00 min 0,3 C -13,9 C
11.12.2010 03:40 0,4 C 99 % 1019 hPa 0,0 l/m 35,1 km/h (5 Bft) W45 265 0 min 0 lux 0,00 min 0,3 C -14,2 C
11.12.2010 03:55 0,4 C 99 % 1019 hPa 0,0 l/m 34,2 km/h (5 Bft) W22.5 275 0 min 0 lux 0,00 min 0,3 C -14,0 C
11.12.2010 04:10 0,4 C 99 % 1019 hPa 0,0 l/m 32,7 km/h (5 Bft) W45 265 0 min 0 lux 0,00 min 0,3 C -13,6 C
11.12.2010 04:25 0,4 C 99 % 1019 hPa 0,0 l/m 28,4 km/h (4 Bft) W-SW45 250 0 min 0 lux 0,00 min 0,3 C -12,3 C
11.12.2010 04:40 0,5 C 99 % 1019 hPa 0,0 l/m 44,5 km/h (6 Bft) W22.5 270 0 min 0 lux 0,00 min 0,4 C -16,0 C
11.12.2010 04:55 0,5 C 99 % 1019 hPa 0,0 l/m 33,7 km/h (5 Bft) W-SW45 255 0 min 0 lux 0,00 min 0,4 C -13,7 C
11.12.2010 05:10 0,5 C 99 % 1019 hPa 0,0 l/m 35,5 km/h (5 Bft) W-SW45 255 0 min 0 lux 0,00 min 0,4 C -14,2 C
11.12.2010 05:25 0,5 C 99 % 1019 hPa 0,0 l/m 30,8 km/h (5 Bft) W-SW45 250 0 min 0 lux 0,00 min 0,4 C -12,9 C
11.12.2010 05:40 0,5 C 99 % 1018 hPa 0,0 l/m 30,8 km/h (5 Bft) W45 260 0 min 0 lux 0,00 min 0,4 C -12,9 C
11.12.2010 05:55 0,6 C 99 % 1019 hPa 0,0 l/m 27,4 km/h (4 Bft) W-SW22.5 255 0 min 0 lux 0,00 min 0,5 C -11,7 C
11.12.2010 06:10 0,6 C 99 % 1019 hPa 0,0 l/m 26,6 km/h (4 Bft) W45 260 0 min 0 lux 0,00 min 0,5 C -11,5 C
11.12.2010 06:26 0,7 C 99 % 1019 hPa 0,0 l/m 31,7 km/h (5 Bft) W22.5 265 0 min 0 lux 0,00 min 0,6 C -12,9 C
11.12.2010 06:41 0,7 C 99 % 1019 hPa 0,0 l/m 30,3 km/h (5 Bft) W45 265 0 min 0 lux 0,00 min 0,6 C -12,5 C
11.12.2010 06:56 0,7 C 99 % 1019 hPa 0,0 l/m 27,7 km/h (4 Bft) W-SW45 250 0 min 0 lux 0,00 min 0,6 C -11,7 C
11.12.2010 07:11 0,7 C 99 % 1019 hPa 0,0 l/m 32,8 km/h (5 Bft) W22.5 260 0 min 0 lux 0,00 min 0,6 C -13,2 C
11.12.2010 07:26 0,7 C 99 % 1019 hPa 0,0 l/m 23,6 km/h (4 Bft) W22.5 260 0 min 0 lux 0,00 min 0,6 C -10,2 C
11.12.2010 07:41 0,6 C 99 % 1019 hPa 0,0 l/m 27,6 km/h (4 Bft) W45 260 0 min 0 lux 0,00 min 0,5 C -11,8 C
11.12.2010 07:56 0,6 C 99 % 1018 hPa 0,0 l/m 31,8 km/h (5 Bft) W-SW22.5 250 0 min 0 lux 0,00 min 0,5 C -13,1 C
11.12.2010 08:11 0,7 C 99 % 1018 hPa 0,0 l/m 33,3 km/h (5 Bft) W-SW45 255 0 min 71 lux 0,00 min 0,6 C -13,3 C
11.12.2010 08:26 0,7 C 99 % 1019 hPa 0,0 l/m 31,2 km/h (5 Bft) W67.5 260 0 min 251 lux 0,00 min 0,6 C -12,8 C
11.12.2010 08:41 0,6 C 99 % 1018 hPa 0,0 l/m 24,8 km/h (4 Bft) W-SW45 255 0 min 411 lux 0,00 min 0,5 C -10,8 C
11.12.2010 08:56 0,7 C 99 % 1019 hPa 0,0 l/m 25,7 km/h (4 Bft) W22.5 260 0 min 708 lux 0,00 min 0,6 C -11,0 C
11.12.2010 09:11 0,7 C 99 % 1019 hPa 0,0 l/m 24,5 km/h (4 Bft) W22.5 265 0 min 1,10 klux 0,00 min 0,6 C -10,6 C
11.12.2010 09:26 0,8 C 99 % 1019 hPa 0,0 l/m 19,8 km/h (3 Bft) W22.5 265 0 min 1,75 klux 0,00 min 0,7 C -8,5 C
11.12.2010 09:41 1,1 C 99 % 1019 hPa 0,0 l/m 24,5 km/h (4 Bft) W22.5 270 0 min 3,28 klux 0,00 min 1,0 C -10,0 C
11.12.2010 09:56 1,2 C 99 % 1019 hPa 0,0 l/m 13,7 km/h (3 Bft) W22.5 270 0 min 4,86 klux 0,00 min 1,1 C -4,7 C
11.12.2010 10:11 1,2 C 99 % 1019 hPa 0,0 l/m 21,6 km/h (4 Bft) W22.5 265 0 min 5,79 klux 0,00 min 1,1 C -8,8 C
11.12.2010 10:31 1,2 C 99 % 1019 hPa 0,0 l/m 20,0 km/h (4 Bft) W22.5 265 0 min 6,89 klux 0,00 min 1,1 C -8,1 C
11.12.2010 10:46 1,2 C 99 % 1019 hPa 0,0 l/m 24,0 km/h (4 Bft) W22.5 260 0 min 8,24 klux 0,00 min 1,1 C -9,7 C
11.12.2010 11:01 1,4 C 99 % 1019 hPa 0,0 l/m 23,7 km/h (4 Bft) W22.5 270 0 min 8,35 klux 0,00 min 1,3 C -9,3 C
11.12.2010 11:16 1,5 C 99 % 1019 hPa 0,0 l/m 22,8 km/h (4 Bft) W22.5 270 0 min 8,67 klux 0,00 min 1,4 C -8,9 C
11.12.2010 11:32 1,5 C 99 % 1019 hPa 0,0 l/m 18,8 km/h (3 Bft) W45 270 0 min 9,8 klux 0,00 min 1,4 C -7,1 C
11.12.2010 11:47 1,6 C 99 % 1019 hPa 0,0 l/m 20,6 km/h (4 Bft) W22.5 265 0 min 9,1 klux 0,00 min 1,5 C -7,8 C
11.12.2010 12:02 1,5 C 99 % 1019 hPa 0,0 l/m 20,8 km/h (4 Bft) W22.5 260 0 min 9,7 klux 0,00 min 1,4 C -8,0 C
11.12.2010 12:17 1,6 C 99 % 1018 hPa 0,0 l/m 17,0 km/h (3 Bft) W22.5 270 0 min 9,7 klux 0,00 min 1,5 C -6,1 C
11.12.2010 12:31 1,6 C 99 % 1018 hPa 0,0 l/m 18,1 km/h (3 Bft) W22.5 260 0 min 9,5 klux 0,00 min 1,5 C -6,7 C
11.12.2010 12:46 1,6 C 99 % 1019 hPa 0,0 l/m 14,1 km/h (3 Bft) W22.5 270 0 min 8,74 klux 0,00 min 1,5 C -4,5 C
11.12.2010 13:01 1,5 C 99 % 1018 hPa 0,0 l/m 17,1 km/h (3 Bft) W22.5 260 0 min 7,22 klux 0,00 min 1,4 C -6,3 C
11.12.2010 13:16 1,5 C 99 % 1019 hPa 0,0 l/m 11,7 km/h (2 Bft) W22.5 260 0 min 7,60 klux 0,00 min 1,4 C -3,1 C
11.12.2010 13:32 1,4 C 99 % 1019 hPa 0,0 l/m 9,2 km/h (2 Bft) W-SW 240 0 min 6,81 klux 0,00 min 1,3 C -1,2 C
11.12.2010 13:47 1,5 C 99 % 1019 hPa 0,0 l/m 12,0 km/h (2 Bft) W 260 0 min 6,10 klux 0,00 min 1,4 C -3,3 C
11.12.2010 14:02 1,3 C 99 % 1019 hPa 0,0 l/m 13,4 km/h (3 Bft) W-SW 250 0 min 6,24 klux 0,00 min 1,2 C -4,4 C
11.12.2010 14:16 1,3 C 99 % 1018 hPa 0,0 l/m 9,5 km/h (2 Bft) W-SW 250 0 min 5,24 klux 0,00 min 1,2 C -1,6 C
11.12.2010 14:31 1,2 C 99 % 1018 hPa 0,0 l/m 11,0 km/h (2 Bft) W-SW22.5 250 0 min 4,72 klux 0,00 min 1,1 C -2,9 C
11.12.2010 14:46 1,2 C 99 % 1018 hPa 0,0 l/m 16,8 km/h (3 Bft) W22.5 260 0 min 3,58 klux 0,00 min 1,1 C -6,5 C
11.12.2010 15:01 1,0 C 99 % 1018 hPa 0,0 l/m 11,4 km/h (2 Bft) W-SW22.5 255 0 min 2,40 klux 0,00 min 0,9 C -3,4 C
11.12.2010 15:17 1,0 C 99 % 1018 hPa 0,0 l/m 11,3 km/h (2 Bft) W22.5 260 0 min 1,95 klux 0,00 min 0,9 C -3,3 C
11.12.2010 15:32 1,0 C 99 % 1018 hPa 0,0 l/m 10,0 km/h (2 Bft) W22.5 260 0 min 1,98 klux 0,00 min 0,9 C -2,3 C
11.12.2010 15:47 0,9 C 99 % 1018 hPa 0,0 l/m 8,3 km/h (2 Bft) W 260 0 min 1,58 klux 0,00 min 0,8 C -1,0 C
11.12.2010 16:01 0,9 C 99 % 1018 hPa 0,0 l/m 12,8 km/h (3 Bft) W22.5 265 0 min 1,09 klux 0,00 min 0,8 C -4,5 C
11.12.2010 16:16 0,9 C 99 % 1018 hPa 0,0 l/m 14,8 km/h (3 Bft) W-SW22.5 250 0 min 571 lux 0,00 min 0,8 C -5,8 C
11.12.2010 16:31 0,9 C 99 % 1018 hPa 0,0 l/m 14,0 km/h (3 Bft) W-SW22.5 250 0 min 295 lux 0,00 min 0,8 C -5,3 C
11.12.2010 16:47 0,8 C 99 % 1018 hPa 0,0 l/m 15,5 km/h (3 Bft) W-SW22.5 250 0 min 111 lux 0,00 min 0,7 C -6,3 C
11.12.2010 17:02 0,8 C 99 % 1018 hPa 0,0 l/m 13,9 km/h (3 Bft) W-SW22.5 255 0 min 45 lux 0,00 min 0,7 C -5,3 C
11.12.2010 17:17 0,7 C 99 % 1018 hPa 0,0 l/m 15,3 km/h (3 Bft) W22.5 265 0 min 9 lux 0,00 min 0,6 C -6,3 C
11.12.2010 17:31 0,7 C 99 % 1018 hPa 0,0 l/m 15,6 km/h (3 Bft) W-SW22.5 255 0 min 0 lux 0,00 min 0,6 C -6,5 C
11.12.2010 17:46 0,7 C 99 % 1018 hPa 0,0 l/m 10,6 km/h (2 Bft) W-SW22.5 250 0 min 0 lux 0,00 min 0,6 C -3,2 C
11.12.2010 18:01 0,8 C 99 % 1017 hPa 0,0 l/m 18,7 km/h (3 Bft) W45 265 0 min 0 lux 0,00 min 0,7 C -8,0 C
11.12.2010 18:17 0,9 C 99 % 1017 hPa 0,0 l/m 20,1 km/h (4 Bft) W22.5 260 0 min 0 lux 0,00 min 0,8 C -8,5 C
11.12.2010 18:32 1,0 C 99 % 1017 hPa 0,0 l/m 22,4 km/h (4 Bft) W22.5 270 0 min 0 lux 0,00 min 0,9 C -9,4 C
11.12.2010 18:47 1,0 C 99 % 1017 hPa 0,0 l/m 17,6 km/h (3 Bft) W-SW22.5 255 0 min 0 lux 0,00 min 0,9 C -7,2 C
11.12.2010 19:01 0,9 C 99 % 1017 hPa 0,0 l/m 12,2 km/h (2 Bft) W-SW22.5 255 0 min 0 lux 0,00 min 0,8 C -4,1 C
11.12.2010 19:16 0,9 C 99 % 1017 hPa 0,0 l/m 9,6 km/h (2 Bft) W-SW 250 0 min 0 lux 0,00 min 0,8 C -2,1 C
11.12.2010 19:31 0,9 C 99 % 1017 hPa 0,0 l/m 17,8 km/h (3 Bft) W22.5 260 0 min 0 lux 0,00 min 0,8 C -7,4 C
11.12.2010 19:46 1,0 C 99 % 1016 hPa 0,0 l/m 19,1 km/h (3 Bft) W22.5 260 0 min 0 lux 0,00 min 0,9 C -7,9 C
11.12.2010 20:02 1,0 C 99 % 1016 hPa 0,0 l/m 15,0 km/h (3 Bft) W22.5 260 0 min 0 lux 0,00 min 0,9 C -5,8 C
11.12.2010 20:17 1,0 C 99 % 1016 hPa 0,0 l/m 10,1 km/h (2 Bft) W22.5 260 0 min 0 lux 0,00 min 0,9 C -2,4 C
11.12.2010 20:32 1,0 C 99 % 1016 hPa 0,0 l/m 12,8 km/h (3 Bft) W-SW22.5 255 0 min 0 lux 0,00 min 0,9 C -4,4 C
11.12.2010 20:46 1,0 C 99 % 1016 hPa 0,0 l/m 21,1 km/h (4 Bft) W45 260 0 min 0 lux 0,00 min 0,9 C -8,8 C
11.12.2010 21:01 1,1 C 99 % 1016 hPa 0,0 l/m 22,6 km/h (4 Bft) W22.5 265 0 min 0 lux 0,00 min 1,0 C -9,3 C
11.12.2010 21:16 1,1 C 99 % 1016 hPa 0,0 l/m 18,6 km/h (3 Bft) W22.5 265 0 min 0 lux 0,00 min 1,0 C -7,6 C
11.12.2010 21:32 1,1 C 99 % 1016 hPa 0,0 l/m 24,6 km/h (4 Bft) W45 265 0 min 0 lux 0,00 min 1,0 C -10,1 C
11.12.2010 21:47 1,1 C 99 % 1016 hPa 0,0 l/m 25,1 km/h (4 Bft) W22.5 265 0 min 0 lux 0,00 min 1,0 C -10,3 C
11.12.2010 22:02 0,9 C 99 % 1015 hPa 0,0 l/m 11,2 km/h (2 Bft) W22.5 260 0 min 0 lux 0,00 min 0,8 C -3,4 C
11.12.2010 22:16 0,9 C 99 % 1015 hPa 0,0 l/m 15,1 km/h (3 Bft) W22.5 260 0 min 0 lux 0,00 min 0,8 C -5,9 C
11.12.2010 22:31 0,9 C 99 % 1015 hPa 0,0 l/m 20,9 km/h (4 Bft) W-SW22.5 255 0 min 0 lux 0,00 min 0,8 C -8,9 C
11.12.2010 22:46 1,1 C 99 % 1015 hPa 0,0 l/m 18,1 km/h (3 Bft) W22.5 260 0 min 0 lux 0,00 min 1,0 C -7,3 C
11.12.2010 23:01 1,1 C 99 % 1015 hPa 0,0 l/m 26,1 km/h (4 Bft) W22.5 265 0 min 0 lux 0,00 min 1,0 C -10,6 C
11.12.2010 23:17 1,1 C 99 % 1015 hPa 0,0 l/m 24,2 km/h (4 Bft) W45 260 0 min 0 lux 0,00 min 1,0 C -9,9 C
11.12.2010 23:32 1,2 C 99 % 1014 hPa 0,0 l/m 28,1 km/h (4 Bft) W45 265 0 min 0 lux 0,00 min 1,1 C -11,1 C
11.12.2010 23:47 1,2 C 99 % 1014 hPa 0,0 l/m 30,8 km/h (5 Bft) W22.5 270 0 min 0 lux 0,00 min 1,1 C -12,0 C
11.12.2010 23:55 1,3 C 98 % 1014 hPa 0,0 l/m 24,1 km/h (4 Bft) W45 275 0 min 0 lux 0,00 min 1,0 C -9,6 C
_ Min-Zeit 00:10 23:55 23:32 - 15:47 - - - - - 00:10 04:40
Minimum _ 0,2 C 98 % 1014 hPa - 8,3 km/h (2 Bft) - - - - - 0,1 C -16,0 C
_ Max-Zeit 11:47 00:10 00:10 00:10 04:40 - - 00:10 11:32 00:10 11:47 15:47
Maximum _ 1,6 C 99 % 1021 hPa 0,0 l/m 44,5 km/h
W (6 Bft)
- - 0 min 9,8 klux 0,00 min 1,5 C -1,0 C
Durchschnitt _ 0,9 C 99 % 1018 hPa #0,0 l/m 22,9 km/h (4 Bft) W - #0 min. 1,71 klux #0 min. 0,7 C -9,1 C